Time;durP1;ratioP1;P1;durP2;ratioP2;P2;SDS_P1;SDS_P2;PMS_P1;PMS_P2;Temp;Humidity;BMP_temperature;BMP_pressure;BME280_temperature;BME280_humidity;BME280_pressure;Samples;Min_cycle;Max_cycle;Signal;HPM_P1;HPM_P2
2023/08/20 00:02:11;;;;;;;5.72;2.50;;;16.20;99.90;;;;;;4985545;28;20149;-69
2023/08/20 00:04:37;;;;;;;6.43;1.85;;;16.30;99.90;;;;;;4986155;28;20034;-69
2023/08/20 00:07:03;;;;;;;5.43;2.15;;;16.30;99.90;;;;;;4989276;28;20065;-69
2023/08/20 00:09:30;;;;;;;4.43;2.08;;;16.30;99.90;;;;;;4972493;28;20626;-68
2023/08/20 00:11:56;;;;;;;2.92;1.73;;;;;;;;;;4970693;28;20831;-69
2023/08/20 00:15:04;;;;;;;6.85;2.83;;;16.30;99.90;;;;;;4968999;28;20096;-69
2023/08/20 00:17:35;;;;;;;5.95;2.65;;;16.60;99.90;;;;;;4984832;28;20096;-69
2023/08/20 00:20:03;;;;;;;8.15;2.08;;;;;;;;;;4984296;28;20038;-68
2023/08/20 00:22:30;;;;;;;6.05;2.50;;;;;;;;;;4986823;28;20046;-69
2023/08/20 00:24:56;;;;;;;4.95;2.40;;;;;;;;;;4988644;28;20049;-69
2023/08/20 00:27:22;;;;;;;5.57;2.30;;;;;;;;;;4990606;28;20045;-70
2023/08/20 00:29:47;;;;;;;7.15;1.92;;;16.00;99.90;;;;;;4986940;28;20069;-69
2023/08/20 00:32:14;;;;;;;3.95;1.90;;;15.80;99.90;;;;;;4988103;28;20436;-68
2023/08/20 00:34:40;;;;;;;3.00;1.65;;;;;;;;;;4987211;28;20488;-69
2023/08/20 00:37:06;;;;;;;4.55;1.98;;;;;;;;;;4967328;28;20034;-69
2023/08/20 00:39:32;;;;;;;4.55;2.28;;;15.60;99.90;;;;;;4989373;28;20452;-69
2023/08/20 00:41:58;;;;;;;4.20;1.92;;;;;;;;;;4990063;28;20068;-68
2023/08/20 00:44:24;;;;;;;6.30;2.35;;;;;;;;;;4983580;28;20039;-69
2023/08/20 00:46:50;;;;;;;6.68;2.08;;;15.60;99.90;;;;;;4988007;28;20080;-68
2023/08/20 00:49:17;;;;;;;4.65;2.22;;;15.50;99.90;;;;;;4974708;28;20050;-68
2023/08/20 00:51:43;;;;;;;4.80;1.90;;;;;;;;;;4967475;28;20416;-69
2023/08/20 00:54:09;;;;;;;3.35;1.92;;;15.50;99.90;;;;;;4981046;28;20055;-68
2023/08/20 00:56:35;;;;;;;4.93;2.40;;;;;;;;;;4988316;28;21228;-69
2023/08/20 00:59:02;;;;;;;8.30;3.55;;;;;;;;;;4987670;28;20038;-71
2023/08/20 01:01:27;;;;;;;15.63;3.92;;;;;;;;;;4969585;28;20050;-70
2023/08/20 01:03:53;;;;;;;15.48;5.15;;;15.80;99.90;;;;;;4984984;28;20045;-69
2023/08/20 01:06:24;;;;;;;12.55;5.82;;;15.90;99.90;;;;;;4987363;28;20046;-69
2023/08/20 01:09:01;;;;;;;12.85;5.20;;;15.80;99.90;;;;;;4987792;28;20408;-68
2023/08/20 01:11:33;;;;;;;10.27;5.38;;;16.00;99.90;;;;;;4986661;28;20832;-69
2023/08/20 01:14:00;;;;;;;6.30;2.97;;;16.00;99.90;;;;;;4987214;28;20125;-69
2023/08/20 01:16:26;;;;;;;5.88;2.55;;;15.80;99.90;;;;;;4973240;28;20101;-68
2023/08/20 01:18:53;;;;;;;7.20;3.00;;;;;;;;;;4965367;28;20046;-69
2023/08/20 01:21:39;;;;;;;6.95;3.05;;;15.60;99.90;;;;;;4965749;28;20049;-68
2023/08/20 01:24:17;;;;;;;5.35;2.55;;;15.40;99.90;;;;;;4984083;28;20435;-69
2023/08/20 01:27:07;;;;;;;5.07;1.95;;;15.30;99.90;;;;;;4982305;28;20441;-69
2023/08/20 01:29:34;;;;;;;6.65;2.28;;;15.10;99.90;;;;;;4968662;28;20491;-68
2023/08/20 01:32:01;;;;;;;7.85;2.97;;;15.20;99.90;;;;;;4992044;28;20041;-68
2023/08/20 01:34:26;;;;;;;7.53;1.90;;;15.20;99.90;;;;;;4967279;28;20042;-68
2023/08/20 01:36:52;;;;;;;5.78;1.77;;;;;;;;;;4982893;28;20045;-68
2023/08/20 01:39:18;;;;;;;6.07;2.72;;;;;;;;;;4963842;28;20034;-68
2023/08/20 01:41:44;;;;;;;5.60;1.85;;;;;;;;;;4971649;28;20054;-68
2023/08/20 01:44:10;;;;;;;5.35;2.10;;;15.20;99.90;;;;;;4972508;28;20045;-68
2023/08/20 01:46:36;;;;;;;6.43;2.22;;;;;;;;;;4971411;28;20054;-68
2023/08/20 01:49:03;;;;;;;4.57;1.70;;;15.30;99.90;;;;;;4972287;28;20442;-68
2023/08/20 01:51:28;;;;;;;4.72;2.20;;;15.30;99.90;;;;;;4989850;28;20050;-68
2023/08/20 01:53:54;;;;;;;4.32;2.15;;;15.20;99.90;;;;;;4973094;28;20043;-68
2023/08/20 02:00:01;;;;;;;7.72;2.72;;;;;;;;;;4994923;28;20037;-69
2023/08/20 02:02:27;;;;;;;7.20;2.65;;;15.30;99.90;;;;;;4983320;28;20046;-69
2023/08/20 02:04:53;;;;;;;7.68;2.38;;;;;;;;;;4990070;28;20758;-68
2023/08/20 02:07:19;;;;;;;5.88;2.40;;;;;;;;;;4992441;28;20068;-70
2023/08/20 02:09:44;;;;;;;7.57;2.88;;;15.20;99.90;;;;;;4989794;28;20100;-68
2023/08/20 02:12:10;;;;;;;9.07;2.80;;;;;;;;;;4988668;28;20051;-68
2023/08/20 02:14:36;;;;;;;6.75;3.30;;;;;;;;;;4968999;28;20562;-68
2023/08/20 02:17:03;;;;;;;5.72;3.22;;;15.20;99.90;;;;;;4985564;28;20104;-69
2023/08/20 02:19:29;;;;;;;10.32;3.15;;;;;;;;;;4991399;28;20078;-68
2023/08/20 02:21:55;;;;;;;7.47;3.28;;;;;;;;;;4985376;28;20069;-69
2023/08/20 02:24:21;;;;;;;6.95;2.28;;;;;;;;;;4990994;28;20046;-69
2023/08/20 02:26:46;;;;;;;9.68;2.50;;;;;;;;;;4969381;28;20058;-68
2023/08/20 02:29:12;;;;;;;5.57;1.90;;;15.40;99.90;;;;;;4991651;28;20346;-68
2023/08/20 02:31:38;;;;;;;8.25;2.20;;;15.30;99.90;;;;;;4972799;28;20050;-69
2023/08/20 02:34:04;;;;;;;9.07;2.45;;;;;;;;;;4988317;28;20145;-68
2023/08/20 02:36:30;;;;;;;6.68;2.17;;;;;;;;;;4987849;28;20046;-69
2023/08/20 02:38:55;;;;;;;8.43;3.38;;;15.50;99.90;;;;;;4989343;28;20710;-68
2023/08/20 02:41:21;;;;;;;10.88;3.00;;;;;;;;;;4989258;28;20081;-70
2023/08/20 02:43:47;;;;;;;8.48;3.13;;;;;;;;;;4972679;28;20046;-68
2023/08/20 02:46:13;;;;;;;9.93;3.55;;;;;;;;;;4985362;28;20101;-70
2023/08/20 02:48:39;;;;;;;8.25;2.47;;;;;;;;;;4987250;28;20512;-69
2023/08/20 02:51:05;;;;;;;8.55;2.60;;;;;;;;;;4983039;28;20092;-70
2023/08/20 02:53:31;;;;;;;5.32;2.45;;;;;;;;;;4986528;28;20527;-69
2023/08/20 02:55:57;;;;;;;5.95;1.85;;;;;;;;;;4988160;28;20049;-68
2023/08/20 02:58:23;;;;;;;5.78;2.20;;;15.40;99.90;;;;;;4990792;28;20046;-68
2023/08/20 03:00:48;;;;;;;4.85;2.20;;;15.50;99.90;;;;;;4988584;28;20468;-69
2023/08/20 03:03:35;;;;;;;7.20;2.45;;;15.00;99.90;;;;;;4989938;28;20082;-69
2023/08/20 03:06:01;;;;;;;5.65;2.25;;;;;;;;;;4993847;28;20045;-69
2023/08/20 03:08:27;;;;;;;9.77;2.47;;;15.20;99.90;;;;;;4970936;28;20056;-68
2023/08/20 03:13:29;;;;;;;5.88;2.45;;;;;;;;;;5207269;22;20164;-69
2023/08/20 03:15:55;;;;;;;6.28;2.88;;;;;;;;;;4986840;28;20049;-68
2023/08/20 03:18:20;;;;;;;6.40;2.60;;;15.10;99.90;;;;;;4986793;28;20046;-69
2023/08/20 03:20:46;;;;;;;6.15;3.70;;;;;;;;;;4988659;28;20125;-68
2023/08/20 03:23:12;;;;;;;8.60;4.80;;;;;;;;;;4988662;28;20077;-69
2023/08/20 03:25:38;;;;;;;9.32;5.80;;;15.00;99.90;;;;;;5006150;28;20091;-68
2023/08/20 03:28:04;;;;;;;5.78;4.40;;;;;;;;;;4986964;28;20125;-68
2023/08/20 03:30:31;;;;;;;6.20;4.15;;;15.10;99.90;;;;;;4987760;28;20041;-69
2023/08/20 03:32:57;;;;;;;7.10;4.35;;;;;;;;;;5006050;28;20044;-69
2023/08/20 03:35:23;;;;;;;11.13;4.82;;;;;;;;;;5006460;28;20041;-69
2023/08/20 03:37:49;;;;;;;8.15;4.30;;;15.30;99.90;;;;;;5003937;28;20041;-68
2023/08/20 03:40:15;;;;;;;14.43;4.68;;;;;;;;;;5003541;28;20052;-68
2023/08/20 03:42:41;;;;;;;16.10;4.80;;;;;;;;;;4987493;28;20475;-68
2023/08/20 03:45:07;;;;;;;8.82;5.80;;;15.50;99.90;;;;;;4987171;28;20059;-70
2023/08/20 03:47:33;;;;;;;8.68;4.60;;;;;;;;;;4987360;28;20401;-69
2023/08/20 03:49:58;;;;;;;8.68;4.25;;;15.40;99.90;;;;;;5005670;28;20046;-68
2023/08/20 03:52:24;;;;;;;11.75;5.13;;;15.40;99.90;;;;;;4969448;28;20707;-68
2023/08/20 03:54:50;;;;;;;8.27;4.07;;;;;;;;;;4988033;28;20048;-68
2023/08/20 03:57:16;;;;;;;11.88;4.63;;;;;;;;;;5001921;28;20046;-68
2023/08/20 03:59:42;;;;;;;7.82;5.38;;;;;;;;;;5003982;28;20419;-69
2023/08/20 04:02:08;;;;;;;10.65;4.03;;;;;;;;;;5003717;28;20069;-68
2023/08/20 04:04:34;;;;;;;8.13;4.10;;;;;;;;;;4986259;28;20587;-70
2023/08/20 04:07:00;;;;;;;9.35;4.43;;;;;;;;;;4970749;28;20038;-68
2023/08/20 04:09:26;;;;;;;9.32;3.75;;;;;;;;;;5005641;28;20417;-69
2023/08/20 04:11:52;;;;;;;8.80;4.53;;;;;;;;;;5003708;28;20081;-68
2023/08/20 04:14:18;;;;;;;7.90;4.50;;;15.30;99.90;;;;;;5004502;28;20053;-69
2023/08/20 04:16:44;;;;;;;9.35;4.20;;;;;;;;;;4986197;28;20084;-69
2023/08/20 04:19:09;;;;;;;5.20;3.45;;;15.10;99.90;;;;;;5004247;28;20124;-68
2023/08/20 04:21:35;;;;;;;7.00;3.60;;;;;;;;;;5004424;28;20041;-68
2023/08/20 04:24:01;;;;;;;7.15;3.80;;;;;;;;;;5004786;28;20034;-69
2023/08/20 04:26:27;;;;;;;6.28;3.90;;;;;;;;;;4987166;28;20129;-68
2023/08/20 04:28:53;;;;;;;6.60;3.72;;;;;;;;;;5004426;28;20042;-68
2023/08/20 04:31:19;;;;;;;7.25;3.85;;;;;;;;;;5004058;28;20123;-68
2023/08/20 04:33:46;;;;;;;4.97;3.70;;;14.80;99.90;;;;;;5005238;28;20044;-68
2023/08/20 04:36:11;;;;;;;7.30;4.57;;;14.80;99.90;;;;;;4984579;28;20038;-69
2023/08/20 04:38:37;;;;;;;5.57;3.83;;;;;;;;;;5004529;28;20046;-69
2023/08/20 04:41:03;;;;;;;6.82;3.67;;;;;;;;;;4986338;28;20137;-68
2023/08/20 04:43:29;;;;;;;5.70;4.15;;;;;;;;;;5004076;28;20471;-68
2023/08/20 04:45:55;;;;;;;4.85;3.72;;;14.90;99.90;;;;;;5002915;28;20069;-69
2023/08/20 04:48:20;;;;;;;8.23;4.55;;;;;;;;;;5003805;28;20091;-68
2023/08/20 04:50:47;;;;;;;9.43;4.43;;;14.90;99.90;;;;;;4986681;28;20050;-69
2023/08/20 04:53:13;;;;;;;5.85;3.55;;;;;;;;;;5003009;28;21839;-69
2023/08/20 04:55:38;;;;;;;6.25;3.28;;;14.70;99.90;;;;;;4984061;28;20046;-68
2023/08/20 04:58:04;;;;;;;3.17;2.88;;;;;;;;;;5003026;28;20064;-68
2023/08/20 05:00:30;;;;;;;4.70;2.22;;;14.70;99.90;;;;;;5004002;28;20385;-68
2023/08/20 05:02:55;;;;;;;8.27;2.97;;;14.60;99.90;;;;;;5002953;28;20112;-68
2023/08/20 05:05:21;;;;;;;2.85;2.30;;;14.00;99.90;;;;;;5003646;28;20575;-68
2023/08/20 05:07:47;;;;;;;3.35;2.22;;;;;;;;;;4985147;28;20124;-68
2023/08/20 05:10:14;;;;;;;7.72;3.65;;;;;;;;;;4985346;28;20053;-69
2023/08/20 05:12:40;;;;;;;7.40;2.83;;;14.70;99.90;;;;;;4985757;28;20083;-68
2023/08/20 05:15:06;;;;;;;8.27;3.78;;;;;;;;;;5000459;28;20044;-68
2023/08/20 05:17:32;;;;;;;5.18;3.17;;;;;;;;;;5002725;28;20046;-69
2023/08/20 05:19:58;;;;;;;7.00;2.97;;;;;;;;;;5003063;28;20045;-68
2023/08/20 05:22:24;;;;;;;8.05;3.08;;;14.60;99.90;;;;;;5004865;28;20128;-68
2023/08/20 05:24:50;;;;;;;6.03;2.75;;;;;;;;;;4985614;28;20411;-69
2023/08/20 05:27:17;;;;;;;4.38;2.35;;;14.80;99.90;;;;;;5003790;28;20663;-68
2023/08/20 05:29:43;;;;;;;3.90;2.50;;;;;;;;;;4985966;28;20061;-68
2023/08/20 05:32:09;;;;;;;4.55;2.70;;;;;;;;;;5003572;28;20041;-69
2023/08/20 05:34:35;;;;;;;5.05;2.55;;;14.80;99.90;;;;;;5000850;28;20799;-68
2023/08/20 05:37:00;;;;;;;5.15;2.75;;;15.10;99.90;;;;;;5002085;28;20053;-68
2023/08/20 05:39:26;;;;;;;5.25;2.75;;;15.20;99.90;;;;;;5003271;28;20533;-68
2023/08/20 05:41:55;;;;;;;5.00;3.15;;;15.00;99.90;;;;;;4986164;28;20460;-68
2023/08/20 05:48:02;;;;;;;8.15;3.78;;;;;;;;;;4995555;28;20479;-68
2023/08/20 05:50:28;;;;;;;9.60;3.97;;;;;;;;;;4985656;28;20050;-68
2023/08/20 05:52:53;;;;;;;8.65;4.43;;;15.60;99.90;;;;;;4984150;28;20061;-68
2023/08/20 05:55:19;;;;;;;10.15;4.38;;;;;;;;;;5003105;28;20042;-69
2023/08/20 05:57:46;;;;;;;7.22;3.83;;;15.60;99.90;;;;;;4996167;28;20111;-69
2023/08/20 06:00:12;;;;;;;11.15;3.70;;;;;;;;;;5000117;28;20034;-68
2023/08/20 06:02:38;;;;;;;10.90;4.10;;;;;;;;;;4993851;28;20053;-69
2023/08/20 06:05:04;;;;;;;7.07;3.28;;;16.00;99.90;;;;;;4985709;28;20042;-68
2023/08/20 06:07:30;;;;;;;11.07;3.40;;;16.10;99.90;;;;;;5002970;28;20038;-68
2023/08/20 06:09:56;;;;;;;14.52;4.13;;;16.10;99.90;;;;;;4983448;28;20049;-68
2023/08/20 06:12:22;;;;;;;9.95;4.10;;;;;;;;;;4984606;28;20405;-68
2023/08/20 06:14:48;;;;;;;9.82;3.85;;;16.90;99.90;;;;;;4984951;28;20060;-68
2023/08/20 06:17:14;;;;;;;11.38;3.88;;;17.20;99.90;;;;;;5003854;28;20038;-69
2023/08/20 06:19:39;;;;;;;11.18;3.20;;;17.70;99.90;;;;;;5003480;28;20045;-70
2023/08/20 06:22:05;;;;;;;13.30;4.57;;;18.10;99.90;;;;;;5004324;28;20096;-68
2023/08/20 06:24:31;;;;;;;6.68;3.70;;;18.30;99.90;;;;;;5003458;28;20042;-68
2023/08/20 06:26:56;;;;;;;12.10;3.20;;;18.60;99.90;;;;;;5003038;28;20038;-69
2023/08/20 06:29:22;;;;;;;8.80;3.67;;;18.80;99.90;;;;;;4988008;28;20097;-68
2023/08/20 06:31:48;;;;;;;8.38;3.70;;;20.50;99.90;;;;;;5005585;28;20101;-70
2023/08/20 06:34:14;;;;;;;7.18;3.50;;;20.80;99.90;;;;;;5006008;28;20078;-70
2023/08/20 06:36:40;;;;;;;9.93;3.50;;;19.40;99.90;;;;;;5007135;28;20042;-69
2023/08/20 06:39:06;;;;;;;11.75;3.70;;;19.50;99.90;;;;;;5006195;28;20500;-69
2023/08/20 06:41:31;;;;;;;8.43;3.03;;;19.70;99.90;;;;;;4988976;28;20076;-69
2023/08/20 06:43:57;;;;;;;8.68;3.75;;;20.00;99.90;;;;;;4988429;28;20046;-69
2023/08/20 06:46:22;;;;;;;10.07;3.70;;;20.50;99.90;;;;;;4989501;28;20084;-71
2023/08/20 06:48:48;;;;;;;11.52;3.20;;;20.50;99.90;;;;;;4989332;28;20065;-70
2023/08/20 06:51:17;;;;;;;11.52;3.53;;;20.80;99.90;;;;;;5007443;28;20045;-70
2023/08/20 06:53:43;;;;;;;8.38;3.00;;;20.50;99.90;;;;;;4998682;28;20682;-68
2023/08/20 06:56:09;;;;;;;12.82;3.90;;;20.70;99.90;;;;;;4988683;28;20053;-69
2023/08/20 06:58:35;;;;;;;9.23;2.70;;;21.00;99.90;;;;;;4988724;28;20408;-70
2023/08/20 07:01:07;;;;;;;8.05;3.20;;;21.00;99.90;;;;;;4988315;28;20896;-71
2023/08/20 07:03:43;;;;;;;9.65;3.30;;;21.00;99.90;;;;;;5005420;28;20057;-70
2023/08/20 07:06:10;;;;;;;7.10;2.95;;;20.90;99.90;;;;;;5006747;28;20042;-70
2023/08/20 07:08:36;;;;;;;9.60;3.15;;;20.70;99.90;;;;;;5006101;28;20145;-71
2023/08/20 07:11:02;;;;;;;8.35;3.05;;;20.90;99.90;;;;;;4988358;28;20856;-69
2023/08/20 07:13:28;;;;;;;8.20;3.63;;;20.60;99.90;;;;;;5006251;28;20053;-72
2023/08/20 07:15:54;;;;;;;8.65;3.50;;;20.70;99.90;;;;;;5006650;28;20506;-70
2023/08/20 07:18:20;;;;;;;10.30;3.92;;;20.40;99.90;;;;;;5005566;28;20124;-70
2023/08/20 07:20:45;;;;;;;10.30;4.10;;;20.20;99.90;;;;;;4987593;28;20081;-70
2023/08/20 07:23:11;;;;;;;16.20;3.85;;;20.40;99.90;;;;;;5006058;28;20042;-73
2023/08/20 07:25:38;;;;;;;13.82;4.13;;;20.90;99.90;;;;;;5005497;28;20045;-69
2023/08/20 07:28:05;;;;;;;13.82;4.20;;;20.20;99.90;;;;;;5005537;28;20125;-69
2023/08/20 07:30:30;;;;;;;13.32;4.32;;;20.10;99.90;;;;;;5005028;28;20039;-69
2023/08/20 07:32:56;;;;;;;10.73;4.15;;;20.20;99.90;;;;;;5004697;28;21634;-70
2023/08/20 07:35:21;;;;;;;12.15;4.22;;;20.40;99.90;;;;;;4987061;28;20042;-70
2023/08/20 07:37:47;;;;;;;11.27;3.88;;;20.10;99.90;;;;;;5006068;28;20124;-70
2023/08/20 07:40:13;;;;;;;16.83;4.45;;;20.30;99.90;;;;;;4996713;28;20042;-70
2023/08/20 07:42:40;;;;;;;11.20;4.30;;;20.30;99.90;;;;;;4986842;28;20049;-70
2023/08/20 07:45:07;;;;;;;16.88;4.25;;;20.30;99.90;;;;;;4984970;28;20049;-69
2023/08/20 07:47:33;;;;;;;9.20;3.47;;;20.20;99.90;;;;;;5005927;28;20712;-70
2023/08/20 07:49:58;;;;;;;9.45;4.40;;;20.40;99.90;;;;;;4988234;28;20044;-70
2023/08/20 07:52:24;;;;;;;16.60;4.75;;;20.40;99.90;;;;;;5005412;28;20034;-69
2023/08/20 07:54:50;;;;;;;12.05;3.83;;;20.50;99.90;;;;;;4986616;28;20041;-69
2023/08/20 07:57:15;;;;;;;12.27;4.13;;;20.50;99.90;;;;;;4997019;28;20065;-69
2023/08/20 07:59:41;;;;;;;12.48;3.30;;;20.50;99.90;;;;;;5004222;28;20048;-69
2023/08/20 08:02:06;;;;;;;9.02;2.70;;;20.50;99.90;;;;;;4986887;28;20042;-69
2023/08/20 08:04:33;;;;;;;13.45;3.15;;;20.60;99.90;;;;;;5005219;28;20085;-70
2023/08/20 08:06:59;;;;;;;13.40;3.17;;;20.40;99.90;;;;;;5005296;28;20046;-69
2023/08/20 08:09:29;;;;;;;14.93;2.95;;;20.60;99.90;;;;;;5005014;28;20045;-69
2023/08/20 08:11:56;;;;;;;10.82;3.22;;;21.20;99.90;;;;;;5005549;28;20228;-69
2023/08/20 08:14:22;;;;;;;16.35;3.58;;;20.80;99.90;;;;;;5005458;28;20049;-69
2023/08/20 08:16:48;;;;;;;9.32;2.50;;;20.90;99.90;;;;;;4985686;28;20042;-69
2023/08/20 08:19:13;;;;;;;9.80;3.00;;;20.80;99.90;;;;;;5004269;28;20048;-69
2023/08/20 08:21:39;;;;;;;10.85;3.25;;;21.10;99.90;;;;;;5002625;28;20042;-69
2023/08/20 08:24:05;;;;;;;12.10;1.70;;;21.00;99.90;;;;;;5004747;28;20046;-70
2023/08/20 08:26:32;;;;;;;11.45;1.92;;;21.10;99.90;;;;;;4982672;28;20049;-70
2023/08/20 08:28:58;;;;;;;14.70;2.08;;;21.20;99.90;;;;;;4985878;28;20050;-70
2023/08/20 08:31:24;;;;;;;13.73;2.40;;;21.40;99.90;;;;;;4984168;28;20050;-70
2023/08/20 08:33:49;;;;;;;10.70;1.95;;;20.90;99.90;;;;;;4982944;28;20045;-70
2023/08/20 08:36:16;;;;;;;10.23;2.47;;;21.00;99.90;;;;;;4999054;28;20385;-70
2023/08/20 08:38:42;;;;;;;11.95;2.00;;;21.00;99.90;;;;;;4982498;28;20047;-70
2023/08/20 08:41:11;;;;;;;7.65;1.60;;;21.00;99.90;;;;;;4986048;28;20046;-70
2023/08/20 08:43:38;;;;;;;15.60;1.77;;;21.30;99.90;;;;;;5003505;28;20045;-70
2023/08/20 08:46:07;;;;;;;7.45;1.45;;;21.20;99.90;;;;;;4982695;28;20538;-70
2023/08/20 08:48:35;;;;;;;9.07;1.58;;;21.30;99.90;;;;;;4996679;28;20468;-70
2023/08/20 08:51:01;;;;;;;10.23;2.75;;;21.40;99.90;;;;;;5001884;28;20497;-70
2023/08/20 08:53:28;;;;;;;10.80;1.60;;;22.40;99.90;;;;;;4990014;28;20096;-70
2023/08/20 08:55:53;;;;;;;10.18;1.35;;;21.40;99.90;;;;;;5004481;28;20045;-70
2023/08/20 08:58:19;;;;;;;8.02;1.40;;;21.70;99.90;;;;;;5001647;28;20046;-70
2023/08/20 09:00:44;;;;;;;7.45;1.60;;;21.60;99.90;;;;;;4999698;28;20045;-70
2023/08/20 09:03:10;;;;;;;9.90;1.95;;;21.80;99.90;;;;;;4986333;28;20169;-70
2023/08/20 09:05:49;;;;;;;12.70;1.67;;;22.00;99.90;;;;;;5000512;28;20050;-70
2023/08/20 09:08:22;;;;;;;8.10;2.00;;;21.70;99.90;;;;;;5002252;28;20048;-70
2023/08/20 09:10:51;;;;;;;13.25;2.50;;;21.90;99.90;;;;;;5000855;28;20557;-70
2023/08/20 09:13:17;;;;;;;7.28;1.17;;;22.00;99.90;;;;;;4997278;28;20470;-70
2023/08/20 09:15:43;;;;;;;9.48;1.50;;;21.90;99.90;;;;;;5001770;28;20077;-70
2023/08/20 09:18:11;;;;;;;10.05;1.73;;;22.30;99.90;;;;;;5001887;28;20033;-70
2023/08/20 09:20:37;;;;;;;7.57;1.50;;;22.30;99.90;;;;;;4999939;28;20564;-70
2023/08/20 09:23:03;;;;;;;4.55;1.08;;;22.30;99.90;;;;;;4982034;28;20512;-70
2023/08/20 09:25:29;;;;;;;8.75;1.83;;;22.30;99.90;;;;;;4969577;28;20052;-70
2023/08/20 09:27:54;;;;;;;7.90;1.73;;;23.10;99.90;;;;;;4999718;28;20037;-70
2023/08/20 09:30:20;;;;;;;6.28;0.98;;;22.50;99.90;;;;;;5004646;28;20050;-70
2023/08/20 09:33:02;;;;;;;12.75;1.52;;;22.60;99.90;;;;;;5005215;28;20049;-70
2023/08/20 09:35:27;;;;;;;6.30;1.10;;;22.80;99.90;;;;;;4976791;28;20508;-70
2023/08/20 09:38:03;;;;;;;7.03;1.42;;;23.70;99.90;;;;;;5005192;28;20037;-70
2023/08/20 09:40:29;;;;;;;6.57;0.98;;;22.90;99.90;;;;;;4999863;28;20087;-70
2023/08/20 09:42:56;;;;;;;9.18;1.48;;;23.00;99.90;;;;;;4980544;28;20126;-70
2023/08/20 09:45:25;;;;;;;7.30;1.10;;;22.80;99.90;;;;;;5000339;28;20057;-70
2023/08/20 09:47:55;;;;;;;7.00;1.23;;;23.10;99.90;;;;;;4982831;28;20034;-70
2023/08/20 09:50:23;;;;;;;8.75;1.35;;;23.30;99.90;;;;;;4999368;28;20523;-70
2023/08/20 09:53:03;;;;;;;4.40;0.90;;;23.10;99.90;;;;;;5002316;28;20042;-70
2023/08/20 09:55:34;;;;;;;5.10;1.10;;;23.30;99.90;;;;;;4987622;28;20065;-70
2023/08/20 09:58:01;;;;;;;3.78;0.55;;;23.10;99.90;;;;;;4985122;28;20046;-70
2023/08/20 10:00:27;;;;;;;6.35;0.85;;;23.40;99.90;;;;;;4988048;28;20787;-70
2023/08/20 10:02:53;;;;;;;8.98;1.27;;;23.30;99.90;;;;;;5003311;28;20095;-70
2023/08/20 10:05:22;;;;;;;8.93;1.33;;;23.40;99.90;;;;;;5004556;28;20037;-70
2023/08/20 10:07:49;;;;;;;7.68;1.20;;;23.60;99.90;;;;;;5005293;28;20115;-70
2023/08/20 10:10:16;;;;;;;7.88;1.05;;;23.50;99.90;;;;;;4988204;28;20042;-70
2023/08/20 10:12:44;;;;;;;6.78;0.90;;;25.00;99.90;;;;;;4986248;28;20599;-70
2023/08/20 10:15:12;;;;;;;8.10;1.52;;;23.70;99.90;;;;;;5005432;28;20050;-70
2023/08/20 10:17:39;;;;;;;3.88;0.68;;;23.70;99.90;;;;;;5003629;28;20514;-70
2023/08/20 10:20:07;;;;;;;6.15;1.58;;;23.80;99.90;;;;;;5007620;28;20041;-70
2023/08/20 10:22:39;;;;;;;3.75;0.70;;;23.60;99.90;;;;;;4964495;28;20045;-70
2023/08/20 10:25:06;;;;;;;6.18;0.93;;;23.60;99.90;;;;;;5009085;28;20045;-70
2023/08/20 10:27:35;;;;;;;6.00;1.15;;;23.60;99.90;;;;;;5007224;28;20057;-70
2023/08/20 10:30:01;;;;;;;8.55;0.80;;;23.80;99.90;;;;;;5001779;28;21045;-70
2023/08/20 10:32:47;;;;;;;4.70;0.70;;;23.80;99.90;;;;;;5008884;28;20049;-70
2023/08/20 10:35:15;;;;;;;9.05;1.35;;;23.80;99.90;;;;;;4987120;28;20048;-70
2023/08/20 10:38:04;;;;;;;7.80;1.02;;;24.20;99.90;;;;;;5005084;28;20038;-70
2023/08/20 10:40:51;;;;;;;4.75;0.75;;;23.90;99.90;;;;;;5000936;28;20046;-70
2023/08/20 10:43:25;;;;;;;6.30;0.73;;;23.60;99.90;;;;;;4996209;28;20045;-70
2023/08/20 10:46:12;;;;;;;7.10;1.08;;;23.70;99.90;;;;;;5003634;28;20048;-70
2023/08/20 10:48:39;;;;;;;7.07;0.73;;;23.70;99.90;;;;;;4997852;28;20404;-70
2023/08/20 10:51:17;;;;;;;5.43;1.23;;;23.60;99.90;;;;;;4998036;28;20155;-70
2023/08/20 10:54:07;;;;;;;5.57;1.15;;;23.60;99.90;;;;;;5003781;28;20073;-70
2023/08/20 10:56:47;;;;;;;5.95;1.15;;;23.50;99.90;;;;;;5003657;28;20057;-70
2023/08/20 10:59:21;;;;;;;6.93;1.48;;;23.60;99.90;;;;;;5005138;28;20056;-70
2023/08/20 11:01:48;;;;;;;11.68;1.35;;;23.80;99.90;;;;;;5003031;28;20447;-70
2023/08/20 11:04:18;;;;;;;6.68;0.88;;;23.80;99.90;;;;;;5004621;28;20037;-70
2023/08/20 11:06:45;;;;;;;4.50;0.98;;;23.70;99.90;;;;;;4985480;28;20081;-70
2023/08/20 11:09:11;;;;;;;5.55;0.90;;;23.80;99.90;;;;;;5006278;28;20045;-70
2023/08/20 11:11:40;;;;;;;5.05;0.90;;;23.50;99.90;;;;;;5005089;28;20089;-70
2023/08/20 11:14:08;;;;;;;4.47;1.13;;;23.80;99.90;;;;;;4986642;28;20068;-70
2023/08/20 11:16:35;;;;;;;5.53;1.20;;;23.80;99.90;;;;;;4984380;28;20053;-70
2023/08/20 11:19:00;;;;;;;7.97;1.70;;;23.80;99.90;;;;;;5006644;28;20412;-70
2023/08/20 11:21:29;;;;;;;4.60;1.08;;;23.80;99.90;;;;;;5002867;28;20038;-70
2023/08/20 11:23:55;;;;;;;8.63;1.48;;;23.80;99.90;;;;;;5001435;28;20049;-70
2023/08/20 11:26:20;;;;;;;4.97;1.33;;;23.60;99.90;;;;;;4982030;28;20042;-70
2023/08/20 11:28:46;;;;;;;9.32;1.70;;;23.90;99.90;;;;;;5001523;28;20041;-70
2023/08/20 11:31:12;;;;;;;9.68;1.55;;;23.60;99.90;;;;;;4983448;28;20045;-70
2023/08/20 11:33:38;;;;;;;13.38;2.00;;;23.50;99.90;;;;;;4983572;28;20042;-70
2023/08/20 11:36:05;;;;;;;8.55;1.33;;;23.80;99.90;;;;;;4982143;28;20107;-71
2023/08/20 11:38:31;;;;;;;6.53;1.40;;;24.70;99.90;;;;;;4969941;28;20791;-70
2023/08/20 11:40:59;;;;;;;7.53;1.20;;;23.70;99.90;;;;;;4982004;28;20076;-70
2023/08/20 11:43:28;;;;;;;8.52;1.20;;;23.70;99.90;;;;;;5003213;28;20073;-70
2023/08/20 11:45:54;;;;;;;8.60;1.70;;;23.70;99.90;;;;;;5004330;28;20046;-70
2023/08/20 11:48:21;;;;;;;3.95;1.27;;;23.80;99.90;;;;;;4982730;28;20531;-70
2023/08/20 11:50:47;;;;;;;8.07;1.80;;;23.60;99.90;;;;;;5007109;28;20041;-70
2023/08/20 11:53:13;;;;;;;5.63;1.15;;;23.40;99.90;;;;;;5003478;28;20042;-70
2023/08/20 11:55:40;;;;;;;10.13;1.83;;;24.00;99.90;;;;;;4980555;28;20046;-70
2023/08/20 11:58:07;;;;;;;6.35;1.52;;;23.60;99.90;;;;;;4985116;28;20041;-70
2023/08/20 12:00:33;;;;;;;5.85;1.17;;;23.80;99.90;;;;;;4995887;28;20077;-70
2023/08/20 12:02:59;;;;;;;7.95;1.75;;;23.80;99.90;;;;;;5002469;28;20065;-70
2023/08/20 12:05:28;;;;;;;6.25;1.63;;;23.90;99.90;;;;;;5002395;28;20204;-70
2023/08/20 12:08:04;;;;;;;14.50;1.83;;;23.70;99.90;;;;;;4998292;28;20116;-70
2023/08/20 12:10:31;;;;;;;10.95;2.08;;;23.90;99.90;;;;;;5003140;28;20061;-70
2023/08/20 12:12:57;;;;;;;5.85;1.40;;;23.70;99.90;;;;;;4998738;28;20146;-70
2023/08/20 12:15:24;;;;;;;7.18;1.73;;;23.90;99.90;;;;;;5001741;28;20081;-70
2023/08/20 12:18:04;;;;;;;6.20;1.75;;;23.80;99.90;;;;;;4999885;28;20718;-70
2023/08/20 12:20:32;;;;;;;8.98;1.48;;;23.60;99.90;;;;;;5003842;28;20046;-70
2023/08/20 12:23:04;;;;;;;5.72;1.70;;;23.50;99.90;;;;;;5003676;28;20069;-70
2023/08/20 12:25:34;;;;;;;6.28;1.48;;;23.60;99.90;;;;;;5002398;28;20075;-70
2023/08/20 12:28:07;;;;;;;5.93;1.13;;;23.60;99.90;;;;;;5005331;28;20045;-70
2023/08/20 12:30:34;;;;;;;8.98;1.73;;;23.70;99.90;;;;;;4984125;28;20440;-70
2023/08/20 12:33:00;;;;;;;6.28;2.10;;;24.20;99.90;;;;;;5003732;28;20183;-70
2023/08/20 12:35:26;;;;;;;4.88;1.40;;;23.80;99.90;;;;;;5000292;28;20038;-70
2023/08/20 12:37:51;;;;;;;4.80;1.30;;;23.90;99.90;;;;;;4979681;28;20536;-70
2023/08/20 12:40:17;;;;;;;5.90;1.55;;;24.00;99.90;;;;;;5004824;28;20429;-70
2023/08/20 12:42:43;;;;;;;5.03;1.35;;;24.60;99.90;;;;;;5006392;28;20762;-70
2023/08/20 12:45:10;;;;;;;7.18;1.60;;;24.00;99.90;;;;;;5007005;28;20687;-70
2023/08/20 12:47:35;;;;;;;8.00;1.80;;;24.00;99.90;;;;;;5003625;28;20042;-70
2023/08/20 12:50:03;;;;;;;6.88;1.10;;;24.90;99.90;;;;;;4987501;28;20530;-70
2023/08/20 12:52:28;;;;;;;5.55;1.15;;;24.20;99.90;;;;;;5002057;28;20045;-70
2023/08/20 12:54:54;;;;;;;5.97;1.27;;;23.90;99.90;;;;;;5004405;28;20029;-70
2023/08/20 12:57:19;;;;;;;6.03;1.30;;;24.00;99.90;;;;;;5006293;28;20049;-70
2023/08/20 12:59:45;;;;;;;4.55;1.42;;;24.10;99.90;;;;;;4986859;28;20053;-70
2023/08/20 13:03:00;;;;;;;8.13;1.80;;;24.00;99.90;;;;;;5005957;28;20038;-70
2023/08/20 13:05:26;;;;;;;;;;;24.60;99.90;;;;;;4996834;28;20049;-70
2023/08/20 13:07:53;;;;;;;4.32;1.35;;;24.20;99.90;;;;;;4987703;28;19980;-70
2023/08/20 13:10:19;;;;;;;6.18;1.08;;;24.30;99.90;;;;;;5005080;28;20459;-70
2023/08/20 13:12:49;;;;;;;9.65;1.83;;;24.10;99.90;;;;;;4984301;28;20476;-70
2023/08/20 13:15:20;;;;;;;6.95;1.77;;;24.10;99.90;;;;;;5001491;28;20093;-70
2023/08/20 13:17:47;;;;;;;8.60;2.03;;;24.30;99.90;;;;;;4997099;28;20074;-70
2023/08/20 13:20:12;;;;;;;9.05;2.22;;;24.40;99.90;;;;;;4984533;28;20140;-70
2023/08/20 13:22:38;;;;;;;7.22;1.50;;;24.70;99.90;;;;;;5003411;28;20156;-70